createdAt,value
2022-08-08T00:01:00.753Z,6.40
2022-08-08T00:03:42.183Z,6.75
2022-08-08T00:06:28.214Z,9.75
2022-08-08T00:09:22.092Z,7.20
2022-08-08T00:12:07.456Z,7.00
2022-08-08T00:14:57.569Z,7.75
2022-08-08T00:18:02.459Z,7.00
2022-08-08T00:20:37.013Z,8.50
2022-08-08T00:23:07.872Z,7.40
2022-08-08T00:25:46.188Z,7.00
2022-08-08T00:28:34.313Z,6.00
2022-08-08T00:32:21.073Z,6.00
2022-08-08T00:34:24.447Z,7.00
2022-08-08T00:37:03.366Z,6.25
2022-08-08T00:41:12.531Z,7.20
2022-08-08T00:42:48.389Z,7.00
2022-08-08T00:45:29.338Z,7.00
2022-08-08T00:48:04.959Z,8.00
2022-08-08T00:50:36.133Z,6.75
2022-08-08T00:53:13.908Z,8.00
2022-08-08T00:55:54.830Z,6.25
2022-08-08T00:58:36.503Z,8.40
2022-08-08T01:01:08.940Z,6.00
2022-08-08T01:04:02.711Z,8.00
2022-08-08T01:06:48.138Z,8.40
2022-08-08T01:09:35.656Z,7.00
2022-08-08T01:12:13.279Z,6.40
2022-08-08T01:14:54.778Z,7.00
2022-08-08T01:17:51.405Z,6.00
2022-08-08T01:20:31.899Z,8.00
2022-08-08T01:24:05.308Z,9.00
2022-08-08T01:26:11.208Z,7.80
2022-08-08T01:28:59.093Z,8.60
2022-08-08T01:32:06.621Z,7.00
2022-08-08T01:34:59.238Z,6.00
2022-08-08T01:37:57.214Z,8.00
2022-08-08T01:40:34.569Z,8.00
2022-08-08T01:43:12.021Z,7.80
2022-08-08T01:45:41.733Z,7.50
2022-08-08T01:48:30.667Z,10.00
2022-08-08T01:51:30.240Z,11.00
2022-08-08T01:55:19.407Z,9.00
2022-08-08T01:57:17.351Z,7.00
2022-08-08T02:00:07.459Z,8.00
2022-08-08T02:02:51.780Z,9.50
2022-08-08T02:05:33.927Z,7.60
2022-08-08T02:08:22.333Z,10.00
2022-08-08T02:11:07.686Z,10.00
2022-08-08T02:13:56.529Z,8.50
2022-08-08T02:16:23.825Z,9.20
2022-08-08T02:19:01.162Z,6.80
2022-08-08T02:22:05.235Z,8.40
2022-08-08T02:24:44.195Z,8.00
2022-08-08T02:27:19.120Z,10.00
2022-08-08T02:30:04.383Z,7.50
2022-08-08T02:32:49.382Z,9.40
2022-08-08T02:35:29.321Z,10.00
2022-08-08T02:38:25.119Z,6.50
2022-08-08T02:41:59.609Z,10.00
2022-08-08T02:44:56.926Z,11.00
2022-08-08T02:47:40.508Z,9.00
2022-08-08T02:50:17.996Z,10.75
2022-08-08T02:53:04.797Z,11.40
2022-08-08T02:55:37.375Z,8.25
2022-08-08T02:58:14.895Z,8.60
2022-08-08T03:01:00.293Z,11.20
2022-08-08T03:05:02.895Z,10.75
2022-08-08T03:06:42.751Z,7.60
2022-08-08T03:09:28.674Z,6.80
2022-08-08T03:12:05.993Z,6.00
2022-08-08T03:15:58.344Z,8.40
2022-08-08T03:17:43.570Z,11.00
2022-08-08T03:20:26.576Z,9.00
2022-08-08T03:22:56.289Z,11.00
2022-08-08T03:25:35.584Z,9.75
2022-08-08T03:28:05.714Z,9.00
2022-08-08T03:30:32.327Z,10.60
2022-08-08T03:33:55.320Z,10.50
2022-08-08T03:36:10.593Z,7.50
2022-08-08T03:38:57.106Z,9.00
2022-08-08T03:42:27.103Z,10.25
2022-08-08T03:44:25.288Z,7.40
2022-08-08T03:46:52.400Z,10.00
2022-08-08T03:49:57.219Z,8.33
2022-08-08T03:52:13.209Z,9.75
2022-08-08T03:55:02.444Z,9.25
2022-08-08T03:58:31.401Z,9.75
2022-08-08T04:00:18.311Z,8.20
2022-08-08T04:02:54.672Z,10.00
2022-08-08T04:05:28.472Z,9.00
2022-08-08T04:07:56.109Z,8.00
2022-08-08T04:10:24.949Z,10.60
2022-08-08T04:12:51.680Z,8.00
2022-08-08T04:15:18.314Z,9.20
2022-08-08T04:17:59.044Z,8.25
2022-08-08T04:20:28.476Z,8.00
2022-08-08T04:22:57.128Z,8.60
2022-08-08T04:25:29.738Z,8.25
2022-08-08T04:28:10.696Z,9.40
2022-08-08T04:30:44.281Z,11.00
2022-08-08T04:33:11.683Z,8.00
2022-08-08T04:35:50.721Z,8.50
2022-08-08T04:38:21.148Z,8.00
2022-08-08T04:40:53.858Z,7.50
2022-08-08T04:43:22.236Z,10.50
2022-08-08T04:45:57.773Z,8.00
2022-08-08T04:48:24.501Z,9.75
2022-08-08T04:50:53.065Z,11.00
2022-08-08T04:54:27.390Z,10.00
2022-08-08T04:56:06.880Z,9.00
2022-08-08T04:58:33.665Z,9.00
2022-08-08T05:01:00.265Z,10.00
2022-08-08T05:04:11.443Z,8.00
2022-08-08T05:06:25.817Z,9.40
2022-08-08T05:08:56.024Z,10.40
2022-08-08T05:11:29.159Z,10.20
2022-08-08T05:14:05.930Z,8.00
2022-08-08T05:16:55.525Z,7.40
2022-08-08T05:20:12.405Z,8.00
2022-08-08T05:22:08.385Z,9.00
2022-08-08T05:24:37.421Z,8.00
2022-08-08T05:27:04.727Z,8.00
2022-08-08T05:29:31.961Z,7.25
2022-08-08T05:32:06.155Z,8.75
2022-08-08T05:35:05.045Z,11.40
2022-08-08T05:37:49.154Z,11.50
2022-08-08T05:40:21.642Z,13.40
2022-08-08T05:42:58.586Z,9.00
2022-08-08T05:45:41.471Z,9.00
2022-08-08T05:48:11.503Z,10.00
2022-08-08T05:50:42.053Z,10.00
2022-08-08T05:53:54.220Z,8.00
2022-08-08T05:56:08.265Z,7.00
2022-08-08T05:58:53.671Z,8.20
2022-08-08T06:01:56.632Z,9.00
2022-08-08T06:04:22.538Z,9.00
2022-08-08T06:06:51.555Z,10.00
2022-08-08T06:09:58.726Z,9.00
2022-08-08T06:12:09.252Z,9.20
2022-08-08T06:14:47.738Z,7.50
2022-08-08T06:17:19.655Z,6.60
2022-08-08T06:19:48.018Z,8.75
2022-08-08T06:25:01.306Z,9.00
2022-08-08T06:27:46.158Z,6.00
2022-08-08T06:30:20.170Z,7.00
2022-08-08T06:33:01.318Z,9.00
2022-08-08T06:36:04.306Z,7.00
2022-08-08T06:38:18.926Z,10.00
2022-08-08T06:40:53.757Z,9.00
2022-08-08T06:43:30.749Z,9.00
2022-08-08T06:46:01.918Z,7.40
2022-08-08T06:48:29.545Z,8.00
2022-08-08T06:50:57.653Z,8.80
2022-08-08T06:53:25.532Z,8.20
2022-08-08T06:56:07.167Z,8.60
2022-08-08T06:58:34.103Z,7.00
2022-08-08T07:01:02.024Z,8.00
2022-08-08T07:04:41.444Z,8.00
2022-08-08T07:06:43.693Z,8.50
2022-08-08T07:09:18.014Z,8.20
2022-08-08T07:11:52.103Z,10.00
2022-08-08T07:14:21.585Z,8.60
2022-08-08T07:16:58.647Z,10.00
2022-08-08T07:19:35.227Z,10.00
2022-08-08T07:22:12.068Z,9.00
2022-08-08T07:24:46.502Z,10.00
2022-08-08T07:27:16.566Z,9.00
2022-08-08T07:30:00.831Z,10.00
2022-08-08T07:32:31.845Z,10.00
2022-08-08T07:35:01.389Z,12.00
2022-08-08T07:37:49.497Z,10.60
2022-08-08T07:40:28.746Z,10.00
2022-08-08T07:42:57.273Z,11.00
2022-08-08T07:45:26.765Z,8.80
2022-08-08T07:48:02.792Z,10.00
2022-08-08T07:50:35.024Z,10.40
2022-08-08T07:53:23.909Z,11.25
2022-08-08T07:56:01.737Z,9.50
2022-08-08T07:58:50.101Z,11.25
2022-08-08T08:01:21.416Z,12.00
2022-08-08T08:04:03.250Z,9.00
2022-08-08T08:06:32.778Z,10.50
2022-08-08T08:09:23.884Z,9.80
2022-08-08T08:11:53.928Z,10.00
2022-08-08T08:14:34.893Z,9.50
2022-08-08T08:17:01.619Z,13.00
2022-08-08T08:19:31.908Z,12.75
2022-08-08T08:22:12.413Z,12.00
2022-08-08T08:24:46.265Z,10.60
2022-08-08T08:27:13.575Z,10.00
2022-08-08T08:29:40.281Z,12.00
2022-08-08T08:32:09.290Z,10.20
2022-08-08T08:34:43.419Z,12.50
2022-08-08T08:37:20.598Z,11.50
2022-08-08T08:40:01.242Z,12.20
2022-08-08T08:42:35.301Z,11.20
2022-08-08T08:45:20.739Z,12.00
2022-08-08T08:47:54.269Z,10.00
2022-08-08T08:50:33.496Z,11.75
2022-08-08T08:53:54.722Z,11.20
2022-08-08T08:56:02.495Z,12.00
2022-08-08T08:58:55.540Z,12.00
2022-08-08T09:01:24.907Z,11.00
2022-08-08T09:03:51.719Z,12.00
2022-08-08T09:06:28.762Z,12.00
2022-08-08T09:09:07.088Z,11.00
2022-08-08T09:11:47.654Z,11.80
2022-08-08T09:14:23.113Z,13.00
2022-08-08T09:16:53.043Z,11.00
2022-08-08T09:21:53.617Z,13.00
2022-08-08T09:22:06.859Z,11.20
2022-08-08T09:24:35.991Z,10.00
2022-08-08T09:27:09.165Z,11.20
2022-08-08T09:29:52.728Z,13.00
2022-08-08T09:32:31.991Z,13.00
2022-08-08T09:35:05.202Z,10.00
2022-08-08T09:38:00.780Z,13.00
2022-08-08T09:40:44.114Z,13.00
2022-08-08T09:43:16.888Z,12.20
2022-08-08T09:46:03.107Z,12.00
2022-08-08T09:48:36.662Z,11.80
2022-08-08T09:51:09.340Z,12.00
2022-08-08T09:54:01.334Z,13.00
2022-08-08T09:56:33.996Z,10.00
2022-08-08T09:59:42.883Z,11.00
2022-08-08T10:02:12.991Z,12.25
2022-08-08T10:04:47.769Z,10.20
2022-08-08T10:07:15.907Z,11.75
2022-08-08T10:10:00.602Z,12.00
2022-08-08T10:12:38.392Z,10.40
2022-08-08T10:15:20.681Z,11.25
2022-08-08T10:18:07.780Z,12.00
2022-08-08T10:20:58.026Z,10.00
2022-08-08T10:23:42.998Z,12.00
2022-08-08T10:26:29.966Z,13.00
2022-08-08T10:29:01.896Z,13.00
2022-08-08T10:31:50.539Z,13.40
2022-08-08T10:34:21.043Z,12.33
2022-08-08T10:36:48.316Z,15.50
2022-08-08T10:39:19.154Z,13.40
2022-08-08T10:42:16.286Z,12.60
2022-08-08T10:44:45.813Z,13.40
2022-08-08T10:47:13.612Z,15.60
2022-08-08T10:50:00.768Z,13.60
2022-08-08T10:52:37.821Z,13.00
2022-08-08T10:55:13.881Z,13.40
2022-08-08T10:57:50.208Z,11.00
2022-08-08T11:00:27.135Z,14.00
2022-08-08T11:02:55.395Z,13.00
2022-08-08T11:05:23.003Z,14.00
2022-08-08T11:08:30.673Z,14.00
2022-08-08T11:10:36.567Z,15.60
2022-08-08T11:16:00.359Z,11.80
2022-08-08T11:18:30.079Z,14.00
2022-08-08T11:20:57.492Z,12.00
2022-08-08T11:23:31.213Z,11.60
2022-08-08T11:25:59.036Z,14.00
2022-08-08T11:28:29.501Z,12.25
2022-08-08T11:31:00.005Z,13.75
2022-08-08T11:33:51.249Z,12.80
2022-08-08T11:36:15.306Z,13.00
2022-08-08T11:38:54.188Z,13.50
2022-08-08T11:41:22.715Z,13.80
2022-08-08T11:43:49.683Z,11.00
2022-08-08T11:46:17.889Z,12.00
2022-08-08T11:48:47.231Z,15.20
2022-08-08T11:51:30.294Z,13.40
2022-08-08T11:54:04.269Z,12.75
2022-08-08T11:56:35.540Z,13.80
2022-08-08T11:59:09.977Z,13.20
2022-08-08T12:01:37.538Z,15.00
2022-08-08T12:04:05.150Z,12.25
2022-08-08T12:06:34.828Z,14.25
2022-08-08T12:09:09.415Z,14.40
2022-08-08T12:11:45.836Z,12.00
2022-08-08T12:14:22.028Z,10.60
2022-08-08T12:16:52.594Z,13.80
2022-08-08T12:19:37.564Z,14.00
2022-08-08T12:22:13.879Z,15.00
2022-08-08T12:24:51.433Z,13.50
2022-08-08T12:27:20.994Z,12.80
2022-08-08T12:29:57.441Z,14.40
2022-08-08T12:32:24.193Z,11.75
2022-08-08T12:35:04.541Z,14.00
2022-08-08T12:37:43.121Z,12.25
2022-08-08T12:40:22.991Z,12.40
2022-08-08T12:42:51.746Z,13.50
2022-08-08T12:45:58.017Z,14.00
2022-08-08T12:48:35.954Z,14.50
2022-08-08T12:51:03.801Z,16.20
2022-08-08T12:53:36.440Z,18.00
2022-08-08T12:56:17.678Z,17.20
2022-08-08T12:58:54.441Z,15.00
2022-08-08T13:01:24.238Z,16.00
2022-08-08T13:04:11.759Z,17.00
2022-08-08T13:07:00.959Z,14.40
2022-08-08T13:10:04.472Z,13.60
2022-08-08T13:12:34.782Z,15.60
2022-08-08T13:15:09.047Z,15.00
2022-08-08T13:18:09.013Z,13.00
2022-08-08T13:20:27.162Z,13.00
2022-08-08T13:23:26.891Z,16.60
2022-08-08T13:25:43.617Z,14.00
2022-08-08T13:28:17.604Z,15.40
2022-08-08T13:30:45.441Z,15.40
2022-08-08T13:33:18.393Z,14.75
2022-08-08T13:35:50.022Z,14.80
2022-08-08T13:38:18.385Z,15.00
2022-08-08T13:40:46.026Z,14.00
2022-08-08T13:43:16.472Z,15.25
2022-08-08T13:45:43.793Z,12.00
2022-08-08T13:48:15.378Z,15.00
2022-08-08T13:50:49.238Z,14.00
2022-08-08T13:53:33.793Z,11.20
2022-08-08T13:56:06.017Z,12.20
2022-08-08T13:58:33.138Z,15.00
2022-08-08T14:01:10.623Z,12.80
2022-08-08T14:03:53.848Z,13.80
2022-08-08T14:06:33.073Z,12.60
2022-08-08T14:09:18.408Z,12.00
2022-08-08T14:11:48.012Z,14.20
2022-08-08T14:14:20.525Z,12.20
2022-08-08T14:16:51.188Z,17.00
2022-08-08T14:19:28.049Z,12.00
2022-08-08T14:22:13.340Z,11.00
2022-08-08T14:24:52.620Z,17.00
2022-08-08T14:27:27.195Z,10.00
2022-08-08T14:29:57.094Z,14.50
2022-08-08T14:32:29.997Z,14.20
2022-08-08T14:35:04.434Z,12.50
2022-08-08T14:37:43.095Z,11.50
2022-08-08T14:40:23.998Z,11.40
2022-08-08T14:42:57.024Z,12.00
2022-08-08T14:46:01.263Z,12.75
2022-08-08T14:48:27.504Z,14.00
2022-08-08T14:51:06.847Z,13.00
2022-08-08T14:53:56.179Z,12.50
2022-08-08T14:56:24.787Z,13.60
2022-08-08T14:58:51.577Z,12.00
2022-08-08T15:01:23.803Z,9.33
2022-08-08T15:03:53.686Z,12.50
2022-08-08T15:06:35.725Z,11.00
2022-08-08T15:09:04.576Z,9.25
2022-08-08T15:11:36.505Z,14.25
2022-08-08T15:14:13.658Z,14.00
2022-08-08T15:16:42.611Z,12.00
2022-08-08T15:19:11.532Z,13.20
2022-08-08T15:21:42.887Z,12.00
2022-08-08T15:24:13.744Z,12.00
2022-08-08T15:26:41.813Z,12.00
2022-08-08T15:29:08.544Z,12.00
2022-08-08T15:32:02.860Z,10.50
2022-08-08T15:34:31.501Z,12.00
2022-08-08T15:37:02.044Z,14.25
2022-08-08T15:39:31.738Z,13.60
2022-08-08T15:42:05.713Z,11.00
2022-08-08T15:44:33.021Z,11.60
2022-08-08T15:46:59.771Z,11.40
2022-08-08T15:49:26.683Z,11.00
2022-08-08T15:51:56.331Z,12.80
2022-08-08T15:54:38.515Z,12.00
2022-08-08T15:57:07.799Z,10.60
2022-08-08T16:00:06.656Z,13.00
2022-08-08T16:02:30.906Z,10.40
2022-08-08T16:04:58.597Z,12.00
2022-08-08T16:07:51.912Z,9.80
2022-08-08T16:13:09.455Z,13.00
2022-08-08T16:13:26.426Z,11.50
2022-08-08T16:15:57.516Z,11.00
2022-08-08T16:18:26.354Z,11.00
2022-08-08T16:20:53.010Z,12.00
2022-08-08T16:23:19.651Z,9.75
2022-08-08T16:25:54.454Z,11.50
2022-08-08T16:28:36.311Z,10.00
2022-08-08T16:31:07.684Z,11.00
2022-08-08T16:33:39.445Z,11.00
2022-08-08T16:36:09.147Z,12.00
2022-08-08T16:38:36.530Z,10.60
2022-08-08T16:41:11.821Z,12.00
2022-08-08T16:43:50.698Z,11.00
2022-08-08T16:46:37.543Z,10.50
2022-08-08T16:49:05.717Z,12.75
2022-08-08T16:55:01.398Z,11.40
2022-08-08T16:55:04.083Z,11.20
2022-08-08T16:57:23.578Z,9.80
2022-08-08T16:59:58.115Z,12.00
2022-08-08T17:02:38.031Z,12.20
2022-08-08T17:05:05.872Z,10.00
2022-08-08T17:07:32.564Z,11.25
2022-08-08T17:09:59.176Z,11.00
2022-08-08T17:12:28.413Z,10.60
2022-08-08T17:14:55.696Z,11.00
2022-08-08T17:18:01.593Z,15.20
2022-08-08T17:20:09.613Z,11.40
2022-08-08T17:22:42.347Z,10.00
2022-08-08T17:25:11.637Z,12.00
2022-08-08T17:27:46.108Z,8.60
2022-08-08T17:30:27.521Z,11.40
2022-08-08T17:34:35.138Z,9.00
2022-08-08T17:35:52.564Z,10.00
2022-08-08T17:38:22.997Z,12.50
2022-08-08T17:40:49.641Z,12.00
2022-08-08T17:43:21.155Z,12.80
2022-08-08T17:45:50.795Z,11.20
2022-08-08T17:48:29.319Z,13.00
2022-08-08T17:50:57.921Z,12.00
2022-08-08T17:53:43.281Z,16.00
2022-08-08T17:56:10.480Z,13.50
2022-08-08T17:58:38.930Z,10.50
2022-08-08T18:01:10.890Z,11.40
2022-08-08T18:03:37.814Z,12.00
2022-08-08T18:06:20.015Z,11.00
2022-08-08T18:08:50.717Z,11.00
2022-08-08T18:11:22.058Z,12.40
2022-08-08T18:13:48.670Z,13.60
2022-08-08T18:16:17.287Z,12.80
2022-08-08T18:18:52.694Z,12.60
2022-08-08T18:21:35.300Z,12.00
2022-08-08T18:24:17.540Z,13.00
2022-08-08T18:26:53.781Z,14.25
2022-08-08T18:29:26.127Z,13.80
2022-08-08T18:31:59.139Z,15.00
2022-08-08T18:34:27.448Z,12.00
2022-08-08T18:36:55.782Z,13.00
2022-08-08T18:39:28.433Z,11.00
2022-08-08T18:41:58.289Z,14.00
2022-08-08T18:44:30.096Z,12.50
2022-08-08T18:47:00.056Z,14.00
2022-08-08T18:49:32.360Z,13.00
2022-08-08T18:52:08.171Z,12.40
2022-08-08T18:54:34.917Z,12.60
2022-08-08T18:57:04.040Z,13.60
2022-08-08T18:59:38.527Z,14.00
2022-08-08T19:02:25.151Z,13.00
2022-08-08T19:04:54.286Z,13.00
2022-08-08T19:07:23.315Z,13.40
2022-08-08T19:10:13.595Z,14.00
2022-08-08T19:12:38.180Z,12.50
2022-08-08T19:15:10.969Z,10.80
2022-08-08T19:17:48.200Z,15.00
2022-08-08T19:20:25.479Z,13.50
2022-08-08T19:22:53.024Z,12.00
2022-08-08T19:26:01.701Z,12.50
2022-08-08T19:28:17.909Z,14.00
2022-08-08T19:30:51.473Z,15.50
2022-08-08T19:33:51.755Z,14.00
2022-08-08T19:36:18.303Z,11.00
2022-08-08T19:38:54.482Z,14.00
2022-08-08T19:41:21.537Z,13.50
2022-08-08T19:44:02.219Z,12.33
2022-08-08T19:46:33.604Z,14.00
2022-08-08T19:49:00.915Z,13.25
2022-08-08T19:51:34.661Z,14.00
2022-08-08T19:54:08.055Z,12.00
2022-08-08T19:56:39.762Z,13.80
2022-08-08T19:59:08.693Z,13.00
2022-08-08T20:02:01.043Z,13.50
2022-08-08T20:04:22.315Z,13.60
2022-08-08T20:06:50.878Z,14.00
2022-08-08T20:09:22.466Z,16.75
2022-08-08T20:11:50.038Z,17.20
2022-08-08T20:14:33.511Z,12.50
2022-08-08T20:17:02.545Z,13.60
2022-08-08T20:19:34.671Z,16.40
2022-08-08T20:22:13.474Z,14.60
2022-08-08T20:24:53.005Z,12.00
2022-08-08T20:27:21.295Z,15.25
2022-08-08T20:29:55.754Z,14.75
2022-08-08T20:32:28.417Z,14.00
2022-08-08T20:35:01.452Z,18.20
2022-08-08T20:37:46.880Z,14.20
2022-08-08T20:40:16.762Z,15.60
2022-08-08T20:42:50.068Z,13.00
2022-08-08T20:45:54.645Z,14.00
2022-08-08T20:48:08.389Z,13.60
2022-08-08T20:50:35.453Z,15.00
2022-08-08T20:53:03.940Z,17.50
2022-08-08T20:55:35.963Z,16.80
2022-08-08T20:58:14.008Z,15.00
2022-08-08T21:00:49.628Z,16.00
2022-08-08T21:03:17.014Z,17.00
2022-08-08T21:05:49.407Z,14.80
2022-08-08T21:08:37.233Z,19.25
2022-08-08T21:11:12.560Z,17.50
2022-08-08T21:13:40.799Z,15.50
2022-08-08T21:16:20.333Z,15.80
2022-08-08T21:18:57.377Z,15.25
2022-08-08T21:21:39.689Z,18.80
2022-08-08T21:24:22.360Z,14.50
2022-08-08T21:26:55.059Z,17.50
2022-08-08T21:30:05.692Z,16.20
2022-08-08T21:32:19.198Z,18.00
2022-08-08T21:34:56.896Z,17.00
2022-08-08T21:37:55.329Z,18.00
2022-08-08T21:40:30.848Z,17.00
2022-08-08T21:42:58.425Z,18.00
2022-08-08T21:48:02.573Z,17.00
2022-08-08T21:48:29.007Z,16.20
2022-08-08T21:51:10.125Z,16.25
2022-08-08T21:54:31.173Z,16.75
2022-08-08T21:56:31.336Z,14.00
2022-08-08T21:59:04.091Z,16.40
2022-08-08T22:01:40.796Z,18.00
2022-08-08T22:04:10.428Z,16.60
2022-08-08T22:06:39.625Z,14.50
2022-08-08T22:09:09.412Z,16.00
2022-08-08T22:11:51.124Z,16.00
2022-08-08T22:14:23.907Z,14.20
2022-08-08T22:16:53.895Z,14.60
2022-08-08T22:19:23.726Z,15.50
2022-08-08T22:21:50.924Z,15.50
2022-08-08T22:24:17.579Z,16.80
2022-08-08T22:27:02.295Z,15.40
2022-08-08T22:29:59.429Z,15.00
2022-08-08T22:32:18.263Z,19.20
2022-08-08T22:34:51.079Z,15.20
2022-08-08T22:37:27.871Z,16.20
2022-08-08T22:40:06.554Z,14.80
2022-08-08T22:42:34.437Z,17.50
2022-08-08T22:45:02.156Z,17.00
2022-08-08T22:47:38.277Z,16.00
2022-08-08T22:50:20.792Z,17.20
2022-08-08T22:53:22.487Z,17.80
2022-08-08T22:55:58.196Z,17.40
2022-08-08T22:58:26.997Z,20.00
2022-08-08T23:00:55.304Z,17.60
2022-08-08T23:03:22.043Z,17.00
2022-08-08T23:05:50.027Z,17.40
2022-08-08T23:08:19.990Z,23.00
2022-08-08T23:10:52.624Z,17.00
2022-08-08T23:13:20.629Z,16.25
2022-08-08T23:16:40.949Z,20.20
2022-08-08T23:18:35.309Z,18.50
2022-08-08T23:21:04.745Z,18.00
2022-08-08T23:23:32.475Z,17.20
2022-08-08T23:26:15.616Z,17.50
2022-08-08T23:28:44.243Z,18.00
2022-08-08T23:31:10.865Z,17.20
2022-08-08T23:34:16.785Z,17.40
2022-08-08T23:36:26.355Z,19.50
2022-08-08T23:38:53.141Z,17.00
2022-08-08T23:41:24.604Z,19.50
2022-08-08T23:43:54.300Z,21.00
2022-08-08T23:49:04.915Z,19.40
2022-08-08T23:49:15.174Z,22.00
2022-08-08T23:52:06.964Z,19.20
2022-08-08T23:54:43.759Z,21.40
2022-08-08T23:57:27.700Z,18.40
